sensor_id;sensor_type;location;lat;lon;timestamp;temperature;humidity
51811;DHT22;52468;40.116;18.296;2023-11-21T00:00:20;14.70;83.20
51811;DHT22;52468;40.116;18.296;2023-11-21T00:02:47;14.60;83.10
51811;DHT22;52468;40.116;18.296;2023-11-21T00:05:16;14.70;83.30
51811;DHT22;52468;40.116;18.296;2023-11-21T00:07:44;14.70;83.30
51811;DHT22;52468;40.116;18.296;2023-11-21T00:10:12;14.60;83.40
51811;DHT22;52468;40.116;18.296;2023-11-21T00:12:42;14.70;83.30
51811;DHT22;52468;40.116;18.296;2023-11-21T00:15:10;14.70;83.60
51811;DHT22;52468;40.116;18.296;2023-11-21T00:17:38;14.60;83.50
51811;DHT22;52468;40.116;18.296;2023-11-21T00:20:07;14.60;83.40
51811;DHT22;52468;40.116;18.296;2023-11-21T00:22:35;14.60;83.70
51811;DHT22;52468;40.116;18.296;2023-11-21T00:25:04;14.50;83.90
51811;DHT22;52468;40.116;18.296;2023-11-21T00:27:32;14.60;83.90
51811;DHT22;52468;40.116;18.296;2023-11-21T00:30:00;14.60;83.80
51811;DHT22;52468;40.116;18.296;2023-11-21T00:32:28;14.50;83.60
51811;DHT22;52468;40.116;18.296;2023-11-21T00:34:56;14.50;83.80
51811;DHT22;52468;40.116;18.296;2023-11-21T00:37:24;14.50;83.60
51811;DHT22;52468;40.116;18.296;2023-11-21T00:39:52;14.50;83.40
51811;DHT22;52468;40.116;18.296;2023-11-21T00:42:20;14.50;83.70
51811;DHT22;52468;40.116;18.296;2023-11-21T00:44:49;14.50;83.70
51811;DHT22;52468;40.116;18.296;2023-11-21T00:47:17;14.50;83.90
51811;DHT22;52468;40.116;18.296;2023-11-21T00:49:45;14.50;83.90
51811;DHT22;52468;40.116;18.296;2023-11-21T00:52:13;14.50;84.20
51811;DHT22;52468;40.116;18.296;2023-11-21T00:54:40;14.50;84.10
51811;DHT22;52468;40.116;18.296;2023-11-21T00:57:08;14.60;84.00
51811;DHT22;52468;40.116;18.296;2023-11-21T00:59:37;14.60;84.10
51811;DHT22;52468;40.116;18.296;2023-11-21T01:02:04;14.70;84.40
51811;DHT22;52468;40.116;18.296;2023-11-21T01:04:32;14.70;84.30
51811;DHT22;52468;40.116;18.296;2023-11-21T01:07:00;14.80;84.60
51811;DHT22;52468;40.116;18.296;2023-11-21T01:09:28;14.90;84.70
51811;DHT22;52468;40.116;18.296;2023-11-21T01:11:57;15.00;84.50
51811;DHT22;52468;40.116;18.296;2023-11-21T01:14:27;15.00;84.70
51811;DHT22;52468;40.116;18.296;2023-11-21T01:16:55;15.10;84.60
51811;DHT22;52468;40.116;18.296;2023-11-21T01:19:23;15.10;84.50
51811;DHT22;52468;40.116;18.296;2023-11-21T01:21:51;15.20;84.60
51811;DHT22;52468;40.116;18.296;2023-11-21T01:24:20;15.10;84.70
51811;DHT22;52468;40.116;18.296;2023-11-21T01:26:48;15.20;84.80
51811;DHT22;52468;40.116;18.296;2023-11-21T01:29:17;15.10;84.90
51811;DHT22;52468;40.116;18.296;2023-11-21T01:31:45;15.10;84.70
51811;DHT22;52468;40.116;18.296;2023-11-21T01:34:13;15.00;84.50
51811;DHT22;52468;40.116;18.296;2023-11-21T01:36:42;15.00;84.50
51811;DHT22;52468;40.116;18.296;2023-11-21T01:39:09;14.90;84.50
51811;DHT22;52468;40.116;18.296;2023-11-21T01:41:42;14.80;84.30
51811;DHT22;52468;40.116;18.296;2023-11-21T01:44:11;14.80;84.10
51811;DHT22;52468;40.116;18.296;2023-11-21T01:46:40;14.60;84.00
51811;DHT22;52468;40.116;18.296;2023-11-21T01:49:10;14.50;84.10
51811;DHT22;52468;40.116;18.296;2023-11-21T01:51:45;14.50;84.10
51811;DHT22;52468;40.116;18.296;2023-11-21T01:54:14;14.50;84.30
51811;DHT22;52468;40.116;18.296;2023-11-21T01:56:46;14.50;84.30
51811;DHT22;52468;40.116;18.296;2023-11-21T01:59:18;14.50;84.30
51811;DHT22;52468;40.116;18.296;2023-11-21T02:01:48;14.50;84.30
51811;DHT22;52468;40.116;18.296;2023-11-21T02:04:19;14.40;84.30
51811;DHT22;52468;40.116;18.296;2023-11-21T02:06:48;14.50;84.20
51811;DHT22;52468;40.116;18.296;2023-11-21T02:09:27;14.40;84.30
51811;DHT22;52468;40.116;18.296;2023-11-21T02:11:57;14.30;84.40
51811;DHT22;52468;40.116;18.296;2023-11-21T02:14:29;14.30;84.40
51811;DHT22;52468;40.116;18.296;2023-11-21T02:16:58;14.30;84.30
51811;DHT22;52468;40.116;18.296;2023-11-21T02:19:26;14.30;84.30
51811;DHT22;52468;40.116;18.296;2023-11-21T02:21:56;14.20;84.30
51811;DHT22;52468;40.116;18.296;2023-11-21T02:24:25;14.20;84.40
51811;DHT22;52468;40.116;18.296;2023-11-21T02:26:53;14.20;84.40
51811;DHT22;52468;40.116;18.296;2023-11-21T02:29:21;14.10;84.50
51811;DHT22;52468;40.116;18.296;2023-11-21T02:31:52;14.10;84.60
51811;DHT22;52468;40.116;18.296;2023-11-21T02:34:23;14.10;84.70
51811;DHT22;52468;40.116;18.296;2023-11-21T02:36:52;14.20;84.60
51811;DHT22;52468;40.116;18.296;2023-11-21T02:39:21;14.10;84.60
51811;DHT22;52468;40.116;18.296;2023-11-21T02:41:52;14.20;84.60
51811;DHT22;52468;40.116;18.296;2023-11-21T02:44:20;14.20;84.60
51811;DHT22;52468;40.116;18.296;2023-11-21T02:46:48;14.20;84.50
51811;DHT22;52468;40.116;18.296;2023-11-21T02:49:16;14.20;84.50
51811;DHT22;52468;40.116;18.296;2023-11-21T02:51:44;14.20;84.40
51811;DHT22;52468;40.116;18.296;2023-11-21T02:54:12;14.30;84.30
51811;DHT22;52468;40.116;18.296;2023-11-21T02:56:40;14.30;84.40
51811;DHT22;52468;40.116;18.296;2023-11-21T02:59:09;14.30;84.60
51811;DHT22;52468;40.116;18.296;2023-11-21T03:01:37;14.40;84.60
51811;DHT22;52468;40.116;18.296;2023-11-21T03:04:05;14.40;84.40
51811;DHT22;52468;40.116;18.296;2023-11-21T03:06:33;14.40;84.60
51811;DHT22;52468;40.116;18.296;2023-11-21T03:09:01;14.50;84.90
51811;DHT22;52468;40.116;18.296;2023-11-21T03:11:29;14.50;85.00
51811;DHT22;52468;40.116;18.296;2023-11-21T03:13:57;14.60;85.10
51811;DHT22;52468;40.116;18.296;2023-11-21T03:16:25;14.60;85.10
51811;DHT22;52468;40.116;18.296;2023-11-21T03:18:53;14.70;84.80
51811;DHT22;52468;40.116;18.296;2023-11-21T03:21:21;14.60;84.60
51811;DHT22;52468;40.116;18.296;2023-11-21T03:23:49;14.60;84.50
51811;DHT22;52468;40.116;18.296;2023-11-21T03:26:17;14.60;84.50
51811;DHT22;52468;40.116;18.296;2023-11-21T03:28:45;14.50;84.50
51811;DHT22;52468;40.116;18.296;2023-11-21T03:31:13;14.50;84.50
51811;DHT22;52468;40.116;18.296;2023-11-21T03:33:45;14.50;84.60
51811;DHT22;52468;40.116;18.296;2023-11-21T03:36:13;14.50;84.60
51811;DHT22;52468;40.116;18.296;2023-11-21T03:38:42;14.40;84.60
51811;DHT22;52468;40.116;18.296;2023-11-21T03:41:10;14.40;84.70
51811;DHT22;52468;40.116;18.296;2023-11-21T03:43:38;14.40;84.90
51811;DHT22;52468;40.116;18.296;2023-11-21T03:46:06;14.50;84.90
51811;DHT22;52468;40.116;18.296;2023-11-21T03:48:36;14.50;84.80
51811;DHT22;52468;40.116;18.296;2023-11-21T03:51:04;14.50;84.70
51811;DHT22;52468;40.116;18.296;2023-11-21T03:53:34;14.50;84.70
51811;DHT22;52468;40.116;18.296;2023-11-21T03:56:03;14.50;84.50
51811;DHT22;52468;40.116;18.296;2023-11-21T03:58:33;14.50;84.50
51811;DHT22;52468;40.116;18.296;2023-11-21T04:01:01;14.50;84.50
51811;DHT22;52468;40.116;18.296;2023-11-21T04:03:29;14.40;84.50
51811;DHT22;52468;40.116;18.296;2023-11-21T04:05:57;14.40;84.60
51811;DHT22;52468;40.116;18.296;2023-11-21T04:08:25;14.40;84.60
51811;DHT22;52468;40.116;18.296;2023-11-21T04:10:53;14.30;84.60
51811;DHT22;52468;40.116;18.296;2023-11-21T04:13:21;14.20;84.60
51811;DHT22;52468;40.116;18.296;2023-11-21T04:15:49;14.20;84.60
51811;DHT22;52468;40.116;18.296;2023-11-21T04:18:17;14.20;84.50
51811;DHT22;52468;40.116;18.296;2023-11-21T04:20:45;14.20;84.30
51811;DHT22;52468;40.116;18.296;2023-11-21T04:23:13;14.10;84.50
51811;DHT22;52468;40.116;18.296;2023-11-21T04:25:41;14.10;84.80
51811;DHT22;52468;40.116;18.296;2023-11-21T04:28:09;14.10;84.90
51811;DHT22;52468;40.116;18.296;2023-11-21T04:30:37;14.10;84.80
51811;DHT22;52468;40.116;18.296;2023-11-21T04:33:07;14.10;84.90
51811;DHT22;52468;40.116;18.296;2023-11-21T04:35:35;14.10;84.80
51811;DHT22;52468;40.116;18.296;2023-11-21T04:38:03;14.10;84.90
51811;DHT22;52468;40.116;18.296;2023-11-21T04:40:31;14.10;84.90
51811;DHT22;52468;40.116;18.296;2023-11-21T04:42:59;14.10;85.00
51811;DHT22;52468;40.116;18.296;2023-11-21T04:45:27;14.10;85.00
51811;DHT22;52468;40.116;18.296;2023-11-21T04:47:54;14.00;85.00
51811;DHT22;52468;40.116;18.296;2023-11-21T04:50:22;14.00;84.90
51811;DHT22;52468;40.116;18.296;2023-11-21T04:52:50;14.00;85.00
51811;DHT22;52468;40.116;18.296;2023-11-21T04:55:18;14.10;84.90
51811;DHT22;52468;40.116;18.296;2023-11-21T04:57:47;14.10;85.00
51811;DHT22;52468;40.116;18.296;2023-11-21T05:00:15;14.20;85.10
51811;DHT22;52468;40.116;18.296;2023-11-21T05:02:43;14.30;85.10
51811;DHT22;52468;40.116;18.296;2023-11-21T05:05:12;14.30;85.10
51811;DHT22;52468;40.116;18.296;2023-11-21T05:07:40;14.30;85.20
51811;DHT22;52468;40.116;18.296;2023-11-21T05:10:09;14.30;85.10
51811;DHT22;52468;40.116;18.296;2023-11-21T05:12:40;14.30;85.30
51811;DHT22;52468;40.116;18.296;2023-11-21T05:15:08;14.30;85.20
51811;DHT22;52468;40.116;18.296;2023-11-21T05:17:40;14.30;85.20
51811;DHT22;52468;40.116;18.296;2023-11-21T05:20:17;14.40;85.40
51811;DHT22;52468;40.116;18.296;2023-11-21T05:22:48;14.40;85.40
51811;DHT22;52468;40.116;18.296;2023-11-21T05:25:17;14.40;85.40
51811;DHT22;52468;40.116;18.296;2023-11-21T05:27:46;14.40;85.40
51811;DHT22;52468;40.116;18.296;2023-11-21T05:30:15;14.40;85.30
51811;DHT22;52468;40.116;18.296;2023-11-21T05:32:43;14.50;85.40
51811;DHT22;52468;40.116;18.296;2023-11-21T05:35:11;14.50;85.50
51811;DHT22;52468;40.116;18.296;2023-11-21T05:37:44;14.50;85.50
51811;DHT22;52468;40.116;18.296;2023-11-21T05:40:13;14.60;85.50
51811;DHT22;52468;40.116;18.296;2023-11-21T05:42:41;14.60;85.50
51811;DHT22;52468;40.116;18.296;2023-11-21T05:45:09;14.70;85.70
51811;DHT22;52468;40.116;18.296;2023-11-21T05:47:40;14.80;86.00
51811;DHT22;52468;40.116;18.296;2023-11-21T05:50:09;15.00;86.00
51811;DHT22;52468;40.116;18.296;2023-11-21T05:52:43;15.10;85.80
51811;DHT22;52468;40.116;18.296;2023-11-21T05:55:11;15.20;85.80
51811;DHT22;52468;40.116;18.296;2023-11-21T05:57:41;15.30;85.60
51811;DHT22;52468;40.116;18.296;2023-11-21T06:00:11;15.30;85.80
51811;DHT22;52468;40.116;18.296;2023-11-21T06:02:52;15.40;85.70
51811;DHT22;52468;40.116;18.296;2023-11-21T06:05:23;15.40;85.70
51811;DHT22;52468;40.116;18.296;2023-11-21T06:07:52;15.30;85.80
51811;DHT22;52468;40.116;18.296;2023-11-21T06:10:21;15.50;85.70
51811;DHT22;52468;40.116;18.296;2023-11-21T06:12:49;15.50;85.60
51811;DHT22;52468;40.116;18.296;2023-11-21T06:15:17;15.50;85.60
51811;DHT22;52468;40.116;18.296;2023-11-21T06:17:48;15.50;85.70
51811;DHT22;52468;40.116;18.296;2023-11-21T06:20:21;15.60;85.70
51811;DHT22;52468;40.116;18.296;2023-11-21T06:22:50;15.70;85.60
51811;DHT22;52468;40.116;18.296;2023-11-21T06:25:19;15.70;85.60
51811;DHT22;52468;40.116;18.296;2023-11-21T06:27:47;15.80;85.40
51811;DHT22;52468;40.116;18.296;2023-11-21T06:30:15;15.80;85.30
51811;DHT22;52468;40.116;18.296;2023-11-21T06:32:43;15.80;85.40
51811;DHT22;52468;40.116;18.296;2023-11-21T06:35:15;16.00;85.80
51811;DHT22;52468;40.116;18.296;2023-11-21T06:37:43;16.30;85.80
51811;DHT22;52468;40.116;18.296;2023-11-21T06:40:18;16.50;85.90
51811;DHT22;52468;40.116;18.296;2023-11-21T06:42:46;16.60;85.80
51811;DHT22;52468;40.116;18.296;2023-11-21T06:45:15;16.90;84.90
51811;DHT22;52468;40.116;18.296;2023-11-21T06:47:43;17.00;85.10
51811;DHT22;52468;40.116;18.296;2023-11-21T06:50:11;17.10;85.10
51811;DHT22;52468;40.116;18.296;2023-11-21T06:52:39;17.30;84.90
51811;DHT22;52468;40.116;18.296;2023-11-21T06:55:07;17.50;84.90
51811;DHT22;52468;40.116;18.296;2023-11-21T06:57:36;17.80;84.80
51811;DHT22;52468;40.116;18.296;2023-11-21T07:00:05;18.10;85.00
51811;DHT22;52468;40.116;18.296;2023-11-21T07:02:34;18.30;84.60
51811;DHT22;52468;40.116;18.296;2023-11-21T07:05:02;18.50;83.90
51811;DHT22;52468;40.116;18.296;2023-11-21T07:07:30;18.50;83.60
51811;DHT22;52468;40.116;18.296;2023-11-21T07:09:58;18.60;83.60
51811;DHT22;52468;40.116;18.296;2023-11-21T07:12:31;18.60;83.60
51811;DHT22;52468;40.116;18.296;2023-11-21T07:14:58;18.70;83.40
51811;DHT22;52468;40.116;18.296;2023-11-21T07:17:26;18.70;83.30
51811;DHT22;52468;40.116;18.296;2023-11-21T07:19:54;18.60;83.30
51811;DHT22;52468;40.116;18.296;2023-11-21T07:22:23;18.50;83.30
51811;DHT22;52468;40.116;18.296;2023-11-21T07:24:50;18.50;83.40
51811;DHT22;52468;40.116;18.296;2023-11-21T07:27:19;18.40;83.50
51811;DHT22;52468;40.116;18.296;2023-11-21T07:29:46;18.40;83.80
51811;DHT22;52468;40.116;18.296;2023-11-21T07:32:16;18.50;83.90
51811;DHT22;52468;40.116;18.296;2023-11-21T07:34:43;18.50;83.80
51811;DHT22;52468;40.116;18.296;2023-11-21T07:37:11;18.50;83.90
51811;DHT22;52468;40.116;18.296;2023-11-21T07:39:40;18.50;83.80
51811;DHT22;52468;40.116;18.296;2023-11-21T07:42:12;18.50;83.60
51811;DHT22;52468;40.116;18.296;2023-11-21T07:44:39;18.50;83.50
51811;DHT22;52468;40.116;18.296;2023-11-21T07:47:07;18.60;84.00
51811;DHT22;52468;40.116;18.296;2023-11-21T07:49:35;18.80;84.40
51811;DHT22;52468;40.116;18.296;2023-11-21T07:52:03;19.00;84.60
51811;DHT22;52468;40.116;18.296;2023-11-21T07:54:32;19.20;84.30
51811;DHT22;52468;40.116;18.296;2023-11-21T07:57:08;19.30;84.10
51811;DHT22;52468;40.116;18.296;2023-11-21T07:59:36;19.50;83.80
51811;DHT22;52468;40.116;18.296;2023-11-21T08:02:04;19.60;83.90
51811;DHT22;52468;40.116;18.296;2023-11-21T08:04:32;19.70;84.30
51811;DHT22;52468;40.116;18.296;2023-11-21T08:07:01;19.90;84.00
51811;DHT22;52468;40.116;18.296;2023-11-21T08:09:29;20.10;83.90
51811;DHT22;52468;40.116;18.296;2023-11-21T08:11:57;20.10;82.80
51811;DHT22;52468;40.116;18.296;2023-11-21T08:14:25;20.10;82.90
51811;DHT22;52468;40.116;18.296;2023-11-21T08:16:53;20.10;82.90
51811;DHT22;52468;40.116;18.296;2023-11-21T08:19:25;20.10;83.70
51811;DHT22;52468;40.116;18.296;2023-11-21T08:21:53;20.30;84.00
51811;DHT22;52468;40.116;18.296;2023-11-21T08:24:22;20.50;84.20
51811;DHT22;52468;40.116;18.296;2023-11-21T08:26:50;20.60;84.00
51811;DHT22;52468;40.116;18.296;2023-11-21T08:29:19;21.00;84.40
51811;DHT22;52468;40.116;18.296;2023-11-21T08:31:48;21.10;84.10
51811;DHT22;52468;40.116;18.296;2023-11-21T08:34:16;21.30;84.00
51811;DHT22;52468;40.116;18.296;2023-11-21T08:36:44;21.50;83.90
51811;DHT22;52468;40.116;18.296;2023-11-21T08:39:13;21.70;83.40
51811;DHT22;52468;40.116;18.296;2023-11-21T08:41:41;21.90;83.10
51811;DHT22;52468;40.116;18.296;2023-11-21T08:44:09;21.80;82.10
51811;DHT22;52468;40.116;18.296;2023-11-21T08:46:37;21.70;82.30
51811;DHT22;52468;40.116;18.296;2023-11-21T08:49:05;21.50;81.90
51811;DHT22;52468;40.116;18.296;2023-11-21T08:51:33;21.60;82.20
51811;DHT22;52468;40.116;18.296;2023-11-21T08:54:01;21.70;81.60
51811;DHT22;52468;40.116;18.296;2023-11-21T08:56:32;21.70;82.00
51811;DHT22;52468;40.116;18.296;2023-11-21T08:59:00;21.80;81.90
51811;DHT22;52468;40.116;18.296;2023-11-21T09:01:31;21.70;81.30
51811;DHT22;52468;40.116;18.296;2023-11-21T09:03:59;21.80;80.90
51811;DHT22;52468;40.116;18.296;2023-11-21T09:06:27;21.90;80.10
51811;DHT22;52468;40.116;18.296;2023-11-21T09:08:55;22.00;78.80
51811;DHT22;52468;40.116;18.296;2023-11-21T09:11:23;22.10;79.30
51811;DHT22;52468;40.116;18.296;2023-11-21T09:13:51;22.20;77.90
51811;DHT22;52468;40.116;18.296;2023-11-21T09:16:19;22.40;77.40
51811;DHT22;52468;40.116;18.296;2023-11-21T09:18:47;22.60;75.50
51811;DHT22;52468;40.116;18.296;2023-11-21T09:21:15;22.80;73.10
51811;DHT22;52468;40.116;18.296;2023-11-21T09:23:45;23.00;71.10
51811;DHT22;52468;40.116;18.296;2023-11-21T09:26:13;23.10;70.10
51811;DHT22;52468;40.116;18.296;2023-11-21T09:28:44;23.20;68.30
51811;DHT22;52468;40.116;18.296;2023-11-21T09:31:14;23.20;66.90
51811;DHT22;52468;40.116;18.296;2023-11-21T09:33:43;23.20;67.10
51811;DHT22;52468;40.116;18.296;2023-11-21T09:36:12;23.40;66.70
51811;DHT22;52468;40.116;18.296;2023-11-21T09:38:42;23.50;65.70
51811;DHT22;52468;40.116;18.296;2023-11-21T09:41:37;23.50;65.10
51811;DHT22;52468;40.116;18.296;2023-11-21T09:44:09;23.60;65.30
51811;DHT22;52468;40.116;18.296;2023-11-21T09:46:42;23.70;63.60
51811;DHT22;52468;40.116;18.296;2023-11-21T09:49:11;23.50;63.40
51811;DHT22;52468;40.116;18.296;2023-11-21T09:51:43;23.50;63.50
51811;DHT22;52468;40.116;18.296;2023-11-21T09:54:13;23.80;62.00
51811;DHT22;52468;40.116;18.296;2023-11-21T09:56:43;23.90;62.00
51811;DHT22;52468;40.116;18.296;2023-11-21T09:59:14;24.10;62.00
51811;DHT22;52468;40.116;18.296;2023-11-21T10:01:43;24.20;60.80
51811;DHT22;52468;40.116;18.296;2023-11-21T10:04:11;24.10;60.90
51811;DHT22;52468;40.116;18.296;2023-11-21T10:06:40;24.00;61.40
51811;DHT22;52468;40.116;18.296;2023-11-21T10:09:14;23.80;62.00
51811;DHT22;52468;40.116;18.296;2023-11-21T10:11:43;23.80;61.60
51811;DHT22;52468;40.116;18.296;2023-11-21T10:14:12;23.70;61.70
51811;DHT22;52468;40.116;18.296;2023-11-21T10:16:41;23.60;62.50
51811;DHT22;52468;40.116;18.296;2023-11-21T10:19:13;23.70;62.60
51811;DHT22;52468;40.116;18.296;2023-11-21T10:21:43;23.70;62.30
51811;DHT22;52468;40.116;18.296;2023-11-21T10:24:11;23.70;62.40
51811;DHT22;52468;40.116;18.296;2023-11-21T10:26:40;23.60;62.50
51811;DHT22;52468;40.116;18.296;2023-11-21T10:29:14;23.70;62.70
51811;DHT22;52468;40.116;18.296;2023-11-21T10:31:44;23.90;63.00
51811;DHT22;52468;40.116;18.296;2023-11-21T10:36:41;24.60;61.50
51811;DHT22;52468;40.116;18.296;2023-11-21T10:39:09;24.70;60.90
51811;DHT22;52468;40.116;18.296;2023-11-21T10:41:41;24.90;59.70
51811;DHT22;52468;40.116;18.296;2023-11-21T10:44:09;25.00;58.70
51811;DHT22;52468;40.116;18.296;2023-11-21T10:46:39;24.60;59.00
51811;DHT22;52468;40.116;18.296;2023-11-21T10:49:08;24.20;60.50
51811;DHT22;52468;40.116;18.296;2023-11-21T10:51:37;24.10;60.50
51811;DHT22;52468;40.116;18.296;2023-11-21T10:54:11;24.00;61.30
51811;DHT22;52468;40.116;18.296;2023-11-21T10:56:40;24.10;60.80
51811;DHT22;52468;40.116;18.296;2023-11-21T10:59:10;24.30;60.70
51811;DHT22;52468;40.116;18.296;2023-11-21T11:01:47;24.30;60.60
51811;DHT22;52468;40.116;18.296;2023-11-21T11:04:19;24.40;61.70
51811;DHT22;52468;40.116;18.296;2023-11-21T11:06:52;24.50;61.40
51811;DHT22;52468;40.116;18.296;2023-11-21T11:09:20;24.50;61.70
51811;DHT22;52468;40.116;18.296;2023-11-21T11:11:48;24.50;61.80
51811;DHT22;52468;40.116;18.296;2023-11-21T11:14:17;24.50;61.30
51811;DHT22;52468;40.116;18.296;2023-11-21T11:16:47;24.50;61.50
51811;DHT22;52468;40.116;18.296;2023-11-21T11:19:16;24.50;61.20
51811;DHT22;52468;40.116;18.296;2023-11-21T11:22:16;24.70;60.80
51811;DHT22;52468;40.116;18.296;2023-11-21T11:28:26;25.00;59.30
51811;DHT22;52468;40.116;18.296;2023-11-21T11:31:03;24.80;60.00
51811;DHT22;52468;40.116;18.296;2023-11-21T11:33:50;24.90;59.70
51811;DHT22;52468;40.116;18.296;2023-11-21T11:38:51;24.80;60.50
51811;DHT22;52468;40.116;18.296;2023-11-21T11:41:27;24.80;60.00
51811;DHT22;52468;40.116;18.296;2023-11-21T11:43:57;24.70;60.50
51811;DHT22;52468;40.116;18.296;2023-11-21T11:46:44;24.50;61.10
51811;DHT22;52468;40.116;18.296;2023-11-21T11:49:27;24.20;62.00
51811;DHT22;52468;40.116;18.296;2023-11-21T11:55:02;23.80;63.50
51811;DHT22;52468;40.116;18.296;2023-11-21T11:57:31;23.60;64.10
51811;DHT22;52468;40.116;18.296;2023-11-21T12:00:17;23.50;64.40
51811;DHT22;52468;40.116;18.296;2023-11-21T12:03:09;23.60;64.30
51811;DHT22;52468;40.116;18.296;2023-11-21T12:05:37;23.60;64.30
51811;DHT22;52468;40.116;18.296;2023-11-21T12:08:11;23.60;64.30
51811;DHT22;52468;40.116;18.296;2023-11-21T12:10:39;23.50;64.60
51811;DHT22;52468;40.116;18.296;2023-11-21T12:13:09;23.30;65.50
51811;DHT22;52468;40.116;18.296;2023-11-21T12:15:39;23.30;66.00
51811;DHT22;52468;40.116;18.296;2023-11-21T12:18:09;23.30;66.20
51811;DHT22;52468;40.116;18.296;2023-11-21T12:20:37;23.40;66.40
51811;DHT22;52468;40.116;18.296;2023-11-21T12:23:10;23.50;65.80
51811;DHT22;52468;40.116;18.296;2023-11-21T12:25:38;23.40;65.80
51811;DHT22;52468;40.116;18.296;2023-11-21T12:28:09;23.40;66.10
51811;DHT22;52468;40.116;18.296;2023-11-21T12:30:37;23.50;66.20
51811;DHT22;52468;40.116;18.296;2023-11-21T12:33:06;23.50;65.90
51811;DHT22;52468;40.116;18.296;2023-11-21T12:35:36;23.50;66.10
51811;DHT22;52468;40.116;18.296;2023-11-21T12:38:04;23.30;65.90
51811;DHT22;52468;40.116;18.296;2023-11-21T12:40:32;23.20;66.70
51811;DHT22;52468;40.116;18.296;2023-11-21T12:43:01;23.10;66.70
51811;DHT22;52468;40.116;18.296;2023-11-21T12:45:31;23.00;67.50
51811;DHT22;52468;40.116;18.296;2023-11-21T12:48:04;23.00;67.40
51811;DHT22;52468;40.116;18.296;2023-11-21T12:50:35;23.00;67.80
51811;DHT22;52468;40.116;18.296;2023-11-21T12:53:07;23.20;67.10
51811;DHT22;52468;40.116;18.296;2023-11-21T12:55:44;23.30;66.80
51811;DHT22;52468;40.116;18.296;2023-11-21T12:58:17;23.30;66.50
51811;DHT22;52468;40.116;18.296;2023-11-21T13:00:48;23.10;66.90
51811;DHT22;52468;40.116;18.296;2023-11-21T13:03:17;23.10;67.40
51811;DHT22;52468;40.116;18.296;2023-11-21T13:05:48;23.10;67.60
51811;DHT22;52468;40.116;18.296;2023-11-21T13:08:20;23.30;67.00
51811;DHT22;52468;40.116;18.296;2023-11-21T13:10:52;23.40;67.00
51811;DHT22;52468;40.116;18.296;2023-11-21T13:13:22;23.50;67.00
51811;DHT22;52468;40.116;18.296;2023-11-21T13:16:10;23.30;67.10
51811;DHT22;52468;40.116;18.296;2023-11-21T13:18:38;23.10;67.30
51811;DHT22;52468;40.116;18.296;2023-11-21T13:21:09;23.00;67.90
51811;DHT22;52468;40.116;18.296;2023-11-21T13:23:41;22.90;68.40
51811;DHT22;52468;40.116;18.296;2023-11-21T13:26:09;22.80;68.80
51811;DHT22;52468;40.116;18.296;2023-11-21T13:28:38;22.80;69.20
51811;DHT22;52468;40.116;18.296;2023-11-21T13:31:08;22.80;69.30
51811;DHT22;52468;40.116;18.296;2023-11-21T13:33:48;22.60;69.60
51811;DHT22;52468;40.116;18.296;2023-11-21T13:36:23;22.50;70.00
51811;DHT22;52468;40.116;18.296;2023-11-21T13:38:52;22.50;70.10
51811;DHT22;52468;40.116;18.296;2023-11-21T13:41:22;22.60;70.10
51811;DHT22;52468;40.116;18.296;2023-11-21T13:43:58;22.60;70.30
51811;DHT22;52468;40.116;18.296;2023-11-21T13:46:52;22.50;70.50
51811;DHT22;52468;40.116;18.296;2023-11-21T13:49:20;22.50;70.80
51811;DHT22;52468;40.116;18.296;2023-11-21T13:51:49;22.40;70.90
51811;DHT22;52468;40.116;18.296;2023-11-21T13:54:19;22.40;71.00
51811;DHT22;52468;40.116;18.296;2023-11-21T13:56:49;22.30;71.10
51811;DHT22;52468;40.116;18.296;2023-11-21T13:59:18;22.20;70.90
51811;DHT22;52468;40.116;18.296;2023-11-21T14:01:51;22.00;71.40
51811;DHT22;52468;40.116;18.296;2023-11-21T14:04:40;21.90;71.80
51811;DHT22;52468;40.116;18.296;2023-11-21T14:07:28;21.80;72.50
51811;DHT22;52468;40.116;18.296;2023-11-21T14:10:06;21.80;72.50
51811;DHT22;52468;40.116;18.296;2023-11-21T14:12:42;21.80;72.60
51811;DHT22;52468;40.116;18.296;2023-11-21T14:15:10;21.80;71.90
51811;DHT22;52468;40.116;18.296;2023-11-21T14:17:43;21.70;71.80
51811;DHT22;52468;40.116;18.296;2023-11-21T14:20:12;21.60;71.10
51811;DHT22;52468;40.116;18.296;2023-11-21T14:22:43;21.50;71.30
51811;DHT22;52468;40.116;18.296;2023-11-21T14:25:11;21.50;71.20
51811;DHT22;52468;40.116;18.296;2023-11-21T14:27:40;21.40;70.90
51811;DHT22;52468;40.116;18.296;2023-11-21T14:30:08;21.20;71.30
51811;DHT22;52468;40.116;18.296;2023-11-21T14:32:36;21.10;71.20
51811;DHT22;52468;40.116;18.296;2023-11-21T14:35:06;21.20;71.20
51811;DHT22;52468;40.116;18.296;2023-11-21T14:37:36;21.10;71.20
51811;DHT22;52468;40.116;18.296;2023-11-21T14:40:04;21.00;71.70
51811;DHT22;52468;40.116;18.296;2023-11-21T14:42:35;20.90;72.10
51811;DHT22;52468;40.116;18.296;2023-11-21T14:45:07;20.80;72.20
51811;DHT22;52468;40.116;18.296;2023-11-21T14:47:35;20.70;72.40
51811;DHT22;52468;40.116;18.296;2023-11-21T14:50:09;20.60;72.50
51811;DHT22;52468;40.116;18.296;2023-11-21T14:52:56;20.50;72.60
51811;DHT22;52468;40.116;18.296;2023-11-21T14:55:26;20.40;72.90
51811;DHT22;52468;40.116;18.296;2023-11-21T14:57:59;20.30;73.30
51811;DHT22;52468;40.116;18.296;2023-11-21T15:00:31;20.30;73.40
51811;DHT22;52468;40.116;18.296;2023-11-21T15:03:03;20.20;73.60
51811;DHT22;52468;40.116;18.296;2023-11-21T15:05:32;20.10;73.80
51811;DHT22;52468;40.116;18.296;2023-11-21T15:08:03;20.00;74.20
51811;DHT22;52468;40.116;18.296;2023-11-21T15:10:54;20.10;74.20
51811;DHT22;52468;40.116;18.296;2023-11-21T15:13:22;20.00;74.60
51811;DHT22;52468;40.116;18.296;2023-11-21T15:15:55;19.90;74.70
51811;DHT22;52468;40.116;18.296;2023-11-21T15:18:23;19.90;74.80
51811;DHT22;52468;40.116;18.296;2023-11-21T15:20:52;19.80;75.20
51811;DHT22;52468;40.116;18.296;2023-11-21T15:23:20;19.70;75.30
51811;DHT22;52468;40.116;18.296;2023-11-21T15:25:48;19.60;75.40
51811;DHT22;52468;40.116;18.296;2023-11-21T15:28:16;19.60;75.60
51811;DHT22;52468;40.116;18.296;2023-11-21T15:30:45;19.50;75.90
51811;DHT22;52468;40.116;18.296;2023-11-21T15:33:17;19.50;76.00
51811;DHT22;52468;40.116;18.296;2023-11-21T15:35:45;19.40;76.30
51811;DHT22;52468;40.116;18.296;2023-11-21T15:38:13;19.40;76.30
51811;DHT22;52468;40.116;18.296;2023-11-21T15:40:41;19.30;76.40
51811;DHT22;52468;40.116;18.296;2023-11-21T15:43:11;19.30;76.70